Time;durP1;ratioP1;P1;durP2;ratioP2;P2;SDS_P1;SDS_P2;PMS_P1;PMS_P2;Temp;Humidity;BMP_temperature;BMP_pressure;BME280_temperature;BME280_humidity;BME280_pressure;Samples;Min_cycle;Max_cycle;Signal;HPM_P1;HPM_P2
2021/06/06 00:00:38;;;;;;;8.38;4.37;;;;;;;12.87;70.56;99361.21;1741024;81;21000;-68
2021/06/06 00:03:08;;;;;;;7.62;4.53;;;;;;;12.90;70.83;99366.08;1749747;81;21063;-69
2021/06/06 00:05:46;;;;;;;11.73;4.75;;;;;;;12.91;70.41;99360.33;1751043;81;21519;-68
2021/06/06 00:08:13;;;;;;;7.58;4.10;;;;;;;13.00;69.99;99357.76;1687464;84;21675;-69
2021/06/06 00:10:42;;;;;;;8.40;4.15;;;;;;;13.02;69.85;99350.06;1698046;84;21179;-68
2021/06/06 00:15:16;;;;;;;6.33;4.13;;;;;;;13.01;70.13;99348.43;1804497;79;23432;-68
2021/06/06 00:17:42;;;;;;;5.65;3.67;;;;;;;12.98;69.99;99349.03;1768034;80;21091;-69
2021/06/06 00:20:10;;;;;;;5.42;4.08;;;;;;;13.02;69.80;99344.59;1749856;82;21481;-68
2021/06/06 00:22:38;;;;;;;10.58;4.60;;;;;;;13.02;69.84;99341.05;1749681;81;21084;-69
2021/06/06 00:25:06;;;;;;;6.42;4.45;;;;;;;12.97;70.33;99341.93;1746581;82;21025;-69
2021/06/06 00:27:32;;;;;;;7.37;4.67;;;;;;;12.93;70.69;99331.36;1747043;82;21015;-69
2021/06/06 00:30:00;;;;;;;;;;;;;;;12.94;70.81;99330.23;1747684;82;20985;-69
2021/06/06 00:32:27;;;;;;;5.78;4.12;;;;;;;12.90;70.97;99336.84;1745686;82;20431;-69
2021/06/06 00:34:54;;;;;;;9.45;4.58;;;;;;;12.79;71.43;99340.83;1747652;82;21028;-69
2021/06/06 00:37:21;;;;;;;;;;;;;;;12.65;71.76;99336.40;1748256;80;21069;-69
2021/06/06 00:39:48;;;;;;;6.23;4.10;;;;;;;12.57;72.05;99337.89;1682766;83;20134;-69
2021/06/06 00:42:18;;;;;;;6.60;3.95;;;;;;;12.54;71.97;99340.41;1697084;83;20955;-68
2021/06/06 00:44:46;;;;;;;8.23;4.30;;;;;;;12.59;72.11;99343.05;1698571;84;20988;-69
2021/06/06 00:47:14;;;;;;;8.30;4.05;;;;;;;12.62;72.31;99341.09;1698380;83;21167;-69
2021/06/06 00:49:41;;;;;;;6.87;3.87;;;;;;;12.62;72.42;99345.19;1699633;84;20963;-68
2021/06/06 00:52:08;;;;;;;6.22;4.10;;;;;;;12.55;72.71;99336.55;1697274;83;21007;-68
2021/06/06 00:54:40;;;;;;;;;;;;;;;12.49;72.88;99339.91;1674936;84;21069;-68
2021/06/06 00:57:11;;;;;;;7.87;4.03;;;;;;;12.46;73.05;99340.50;1697446;83;20111;-69
2021/06/06 00:59:44;;;;;;;7.25;4.25;;;;;;;12.33;73.57;99330.28;1699204;84;21568;-69
2021/06/06 01:02:11;;;;;;;6.75;5.15;;;;;;;12.21;74.21;99331.27;1697367;83;20986;-68
2021/06/06 01:04:40;;;;;;;6.87;4.78;;;;;;;12.09;74.72;99335.77;1675019;83;21019;-69
2021/06/06 01:07:08;;;;;;;9.18;4.90;;;;;;;12.05;75.04;99335.27;1699395;83;21030;-68
2021/06/06 01:09:36;;;;;;;9.45;4.58;;;;;;;12.02;75.15;99332.58;1698900;84;21013;-68
2021/06/06 01:12:23;;;;;;;10.03;5.37;;;;;;;12.00;75.39;99332.08;1709457;82;21054;-68
2021/06/06 01:15:15;;;;;;;8.10;5.00;;;;;;;11.98;75.72;99331.53;1697645;83;21019;-67
2021/06/06 01:17:46;;;;;;;9.50;5.28;;;;;;;11.97;75.97;99331.30;1733420;82;21102;-69
2021/06/06 01:20:46;;;;;;;8.63;5.17;;;;;;;11.98;76.04;99332.90;1736105;82;20978;-69
2021/06/06 01:23:25;;;;;;;11.80;5.87;;;;;;;11.99;76.13;99330.44;1694109;83;21102;-67
2021/06/06 01:25:54;;;;;;;8.18;5.83;;;;;;;12.00;76.05;99332.08;1658904;85;20985;-67
2021/06/06 01:28:43;;;;;;;8.58;5.87;;;;;;;11.98;75.95;99335.63;1686034;84;21121;-67
2021/06/06 01:31:10;;;;;;;10.28;6.58;;;;;;;12.01;75.43;99326.07;1686457;85;20956;-67
2021/06/06 01:33:48;;;;;;;8.95;5.50;;;;;;;12.06;75.08;99322.72;1685750;85;21095;-67
2021/06/06 01:36:22;;;;;;;8.50;6.00;;;;;;;12.10;74.86;99318.30;1685143;85;20999;-67
2021/06/06 01:38:58;;;;;;;8.08;5.53;;;;;;;12.15;74.89;99321.53;1685497;85;21045;-67
2021/06/06 01:41:36;;;;;;;9.38;5.37;;;;;;;12.10;74.91;99323.77;1685847;85;20978;-67
2021/06/06 01:44:06;;;;;;;8.98;5.53;;;;;;;12.08;74.90;99324.59;1684781;83;21035;-68
2021/06/06 01:46:41;;;;;;;8.15;5.08;;;;;;;12.12;74.91;99329.73;1685703;85;21009;-67
2021/06/06 01:49:09;;;;;;;9.43;5.17;;;;;;;12.15;74.91;99344.15;1685554;84;21054;-68
2021/06/06 01:51:40;;;;;;;8.18;5.30;;;;;;;12.18;74.95;99330.50;1657491;85;21014;-68
2021/06/06 01:54:10;;;;;;;7.92;5.28;;;;;;;12.13;75.03;99331.36;1657462;85;21055;-68
2021/06/06 01:56:39;;;;;;;6.95;4.87;;;;;;;12.12;75.05;99330.28;1684231;85;21892;-68
2021/06/06 01:59:10;;;;;;;9.70;5.62;;;;;;;12.18;75.04;99327.22;1658117;85;21574;-67
2021/06/06 02:01:38;;;;;;;10.40;4.90;;;;;;;12.25;74.85;99322.77;1659114;85;21538;-67
2021/06/06 02:04:05;;;;;;;12.98;5.47;;;;;;;12.26;74.88;99325.19;1651886;84;21237;-68
2021/06/06 02:06:40;;;;;;;11.90;5.92;;;;;;;12.26;75.10;99321.64;1685419;85;21016;-68
2021/06/06 02:09:08;;;;;;;13.60;8.08;;;;;;;12.28;75.18;99317.53;1685291;84;21019;-67
2021/06/06 02:11:47;;;;;;;12.15;6.37;;;;;;;12.39;75.25;99326.41;1683925;85;21573;-67
2021/06/06 02:14:22;;;;;;;7.15;4.90;;;;;;;12.47;75.21;99321.63;1688592;84;21053;-67
2021/06/06 02:16:54;;;;;;;9.60;5.83;;;;;;;12.45;75.43;99320.58;1703349;84;20965;-67
2021/06/06 02:19:25;;;;;;;7.92;4.55;;;;;;;12.40;75.64;99324.72;1701884;84;21032;-67
2021/06/06 02:21:58;;;;;;;6.97;4.75;;;;;;;12.39;75.82;99317.66;1704837;83;21449;-67
2021/06/06 02:24:27;;;;;;;7.60;4.75;;;;;;;12.39;75.78;99320.39;1701293;84;21654;-67
2021/06/06 02:27:05;;;;;;;7.78;4.67;;;;;;;12.42;75.77;99323.90;1701860;84;20962;-67
2021/06/06 02:29:38;;;;;;;8.55;4.45;;;;;;;12.50;75.87;99322.98;1675617;84;21026;-68
2021/06/06 02:32:36;;;;;;;9.38;5.12;;;;;;;12.52;75.76;99316.66;1704643;84;21026;-68
2021/06/06 02:35:10;;;;;;;9.90;5.33;;;;;;;12.55;75.79;99320.16;1741592;82;21049;-68
2021/06/06 02:38:05;;;;;;;8.78;4.72;;;;;;;12.62;75.77;99318.69;1741111;81;21025;-67
2021/06/06 02:40:42;;;;;;;7.22;4.65;;;;;;;12.64;75.67;99315.13;1740363;82;20993;-68
2021/06/06 02:43:22;;;;;;;8.27;4.97;;;;;;;12.58;75.29;99323.66;1742195;81;21054;-67
2021/06/06 02:45:51;;;;;;;7.50;4.33;;;;;;;12.51;75.48;99327.31;1739879;82;21036;-68
2021/06/06 02:48:37;;;;;;;9.48;4.72;;;;;;;12.55;75.64;99333.81;1742112;82;21419;-68
2021/06/06 02:51:06;;;;;;;6.33;4.83;;;;;;;12.61;75.23;99323.10;1741698;82;20966;-68
2021/06/06 02:53:39;;;;;;;7.00;4.33;;;;;;;12.63;75.19;99324.97;1739597;81;21003;-68
2021/06/06 02:56:10;;;;;;;9.25;4.70;;;;;;;12.65;75.10;99328.20;1716446;82;20968;-67
2021/06/06 02:58:54;;;;;;;8.08;5.80;;;;;;;12.65;75.19;99330.39;1713709;82;21077;-67
2021/06/06 03:01:31;;;;;;;8.35;5.60;;;;;;;12.71;75.56;99321.03;1739167;82;21435;-68
2021/06/06 03:04:00;;;;;;;6.70;4.40;;;;;;;12.80;75.07;99325.27;1713847;82;21049;-68
2021/06/06 03:06:45;;;;;;;8.08;4.80;;;;;;;12.84;74.67;99321.65;1692921;82;21018;-68
2021/06/06 03:09:15;;;;;;;7.70;4.60;;;;;;;12.85;74.35;99322.47;1717597;82;21061;-67
2021/06/06 03:11:44;;;;;;;7.17;4.75;;;;;;;12.92;74.04;99324.27;1741852;82;21006;-68
2021/06/06 03:14:16;;;;;;;10.32;5.67;;;;;;;13.04;73.90;99325.97;1741271;81;21030;-68
2021/06/06 03:16:59;;;;;;;9.30;6.37;;;;;;;13.12;74.01;99332.17;1715811;82;20935;-67
2021/06/06 03:19:28;;;;;;;10.43;6.30;;;;;;;13.11;74.48;99325.66;1732229;82;21521;-68
2021/06/06 03:21:56;;;;;;;7.28;4.97;;;;;;;13.15;74.71;99332.94;1715295;82;20939;-68
2021/06/06 03:24:38;;;;;;;6.40;4.28;;;;;;;13.19;74.07;99329.86;1673193;84;21043;-67
2021/06/06 03:27:07;;;;;;;9.10;4.53;;;;;;;13.27;71.85;99344.78;1667626;84;21470;-68
2021/06/06 03:29:41;;;;;;;7.35;5.03;;;;;;;13.42;70.10;99339.88;1731948;82;21019;-68
2021/06/06 03:32:10;;;;;;;7.10;4.67;;;;;;;13.56;69.45;99345.37;1733423;82;21039;-68
2021/06/06 03:34:38;;;;;;;9.13;4.30;;;;;;;13.59;69.13;99339.85;1736045;82;21003;-68
2021/06/06 03:37:05;;;;;;;7.80;4.70;;;;;;;13.58;69.39;99338.22;1731950;81;21422;-68
2021/06/06 03:39:43;;;;;;;7.95;5.33;;;;;;;13.62;69.17;99342.80;1717579;82;21624;-67
2021/06/06 03:42:12;;;;;;;8.23;4.67;;;;;;;13.66;69.43;99341.09;1733414;81;21002;-67
2021/06/06 03:44:40;;;;;;;9.48;4.47;;;;;;;13.66;69.61;99347.11;1729855;82;21014;-67
2021/06/06 03:47:06;;;;;;;7.75;5.00;;;;;;;13.75;68.92;99349.39;1733750;82;22071;-67
2021/06/06 03:49:33;;;;;;;7.92;4.70;;;;;;;13.85;68.53;99346.48;1732459;82;21041;-68
2021/06/06 03:52:01;;;;;;;9.43;5.40;;;;;;;13.87;68.44;99350.53;1674864;84;21389;-67
2021/06/06 03:54:28;;;;;;;7.28;5.00;;;;;;;13.90;68.54;99351.84;1697073;84;21529;-67
2021/06/06 03:56:55;;;;;;;;;;;;;;;14.00;68.59;99348.91;1736993;82;21033;-67
2021/06/06 03:59:22;;;;;;;9.20;4.42;;;;;;;14.10;68.65;99346.55;1715771;82;20112;-67
2021/06/06 04:01:51;;;;;;;8.03;4.83;;;;;;;14.09;68.68;99356.69;1714683;82;20951;-67
2021/06/06 04:04:18;;;;;;;9.05;5.10;;;;;;;14.04;69.27;99363.61;1732950;82;21068;-67
2021/06/06 04:06:45;;;;;;;9.15;4.80;;;;;;;14.04;69.87;99366.91;1693684;84;20991;-68
2021/06/06 04:09:12;;;;;;;9.53;4.58;;;;;;;14.07;69.69;99353.42;1685571;84;20994;-67
2021/06/06 04:11:39;;;;;;;7.25;4.78;;;;;;;14.15;69.87;99349.98;1683667;84;21027;-67
2021/06/06 04:14:07;;;;;;;10.10;5.15;;;;;;;14.23;70.09;99350.66;1690710;84;21049;-67
2021/06/06 04:16:35;;;;;;;9.50;4.70;;;;;;;14.26;70.28;99351.41;1736214;82;20957;-68
2021/06/06 04:19:04;;;;;;;11.95;5.35;;;;;;;14.32;70.30;99337.04;1735683;81;21504;-67
2021/06/06 04:21:33;;;;;;;9.15;5.05;;;;;;;14.39;71.12;99328.70;1736457;82;20969;-68
2021/06/06 04:24:02;;;;;;;11.78;6.33;;;;;;;14.50;71.58;99335.33;1736269;82;21076;-67
2021/06/06 04:26:29;;;;;;;12.23;6.85;;;;;;;14.59;71.66;99339.80;1734759;82;21056;-67
2021/06/06 04:28:57;;;;;;;13.55;6.80;;;;;;;14.65;71.65;99341.30;1734221;82;21034;-68
2021/06/06 04:31:26;;;;;;;9.53;5.87;;;;;;;14.58;71.75;99327.77;1734898;82;20946;-66
2021/06/06 04:33:53;;;;;;;10.38;5.75;;;;;;;14.68;71.56;99337.12;1733749;82;21076;-66
2021/06/06 04:36:20;;;;;;;8.28;5.20;;;;;;;14.75;71.72;99353.39;1736078;82;20982;-66
2021/06/06 04:38:47;;;;;;;16.42;9.25;;;;;;;14.82;72.56;99352.97;1735494;81;21017;-66
2021/06/06 04:41:15;;;;;;;10.93;7.60;;;;;;;14.79;73.11;99342.62;1734752;82;21048;-66
2021/06/06 04:43:43;;;;;;;11.45;6.95;;;;;;;14.79;73.28;99345.37;1734958;82;21549;-67
2021/06/06 04:46:10;;;;;;;9.95;6.17;;;;;;;14.81;73.41;99336.27;1734738;82;21048;-66
2021/06/06 04:48:40;;;;;;;7.55;4.78;;;;;;;14.78;73.78;99336.88;1736335;82;21620;-66
2021/06/06 04:51:11;;;;;;;8.68;5.10;;;;;;;14.78;73.83;99340.44;1735192;82;21400;-66
2021/06/06 04:53:41;;;;;;;9.58;5.30;;;;;;;14.84;73.61;99342.52;1668135;86;21150;-66
2021/06/06 04:56:11;;;;;;;8.98;5.42;;;;;;;14.94;73.52;99343.09;1710026;82;21066;-66
2021/06/06 04:58:39;;;;;;;8.30;6.05;;;;;;;15.03;74.20;99346.45;1710167;82;21053;-66
2021/06/06 05:01:07;;;;;;;10.58;6.17;;;;;;;15.18;74.45;99337.87;1735419;82;21009;-66
2021/06/06 05:03:34;;;;;;;8.25;5.33;;;;;;;15.37;74.04;99336.54;1736294;82;21065;-66
2021/06/06 05:06:00;;;;;;;9.88;6.58;;;;;;;15.57;73.45;99332.52;1736355;82;20991;-66
2021/06/06 05:08:27;;;;;;;9.08;5.15;;;;;;;15.71;72.31;99336.54;1735304;82;21489;-66
2021/06/06 05:10:54;;;;;;;8.28;5.97;;;;;;;15.77;71.52;99344.31;1711398;82;20978;-67
2021/06/06 05:13:21;;;;;;;8.33;5.80;;;;;;;15.85;70.58;99344.12;1711558;82;21155;-66
2021/06/06 05:15:50;;;;;;;7.97;5.42;;;;;;;16.02;70.52;99344.19;1739409;82;20998;-66
2021/06/06 05:18:18;;;;;;;9.55;6.00;;;;;;;16.25;70.36;99343.56;1739854;81;21010;-66
2021/06/06 05:20:47;;;;;;;9.05;5.50;;;;;;;16.48;69.99;99347.00;1738905;82;21004;-66
2021/06/06 05:23:15;;;;;;;9.28;5.12;;;;;;;16.60;69.50;99350.79;1740684;82;21614;-66
2021/06/06 05:25:43;;;;;;;9.18;5.87;;;;;;;16.71;68.43;99349.92;1713431;82;20990;-66
2021/06/06 05:28:14;;;;;;;10.23;5.33;;;;;;;16.81;68.50;99349.05;1741681;82;21490;-66
2021/06/06 05:30:41;;;;;;;7.05;4.83;;;;;;;17.04;68.44;99344.78;1740961;82;20982;-66
2021/06/06 05:33:08;;;;;;;7.95;5.35;;;;;;;17.30;67.48;99355.99;1739787;81;21029;-66
2021/06/06 05:35:35;;;;;;;8.35;5.80;;;;;;;17.38;66.44;99359.31;1739989;82;21011;-66
2021/06/06 05:38:03;;;;;;;9.68;5.65;;;;;;;17.33;66.23;99360.03;1712217;82;21019;-66
2021/06/06 05:40:30;;;;;;;10.25;5.47;;;;;;;17.31;66.59;99360.37;1739284;82;21561;-66
2021/06/06 05:42:57;;;;;;;7.72;4.60;;;;;;;17.44;66.28;99354.44;1738820;81;21147;-67
2021/06/06 05:45:24;;;;;;;9.83;5.53;;;;;;;17.73;65.81;99353.20;1741637;82;21022;-66
2021/06/06 05:47:51;;;;;;;11.08;4.80;;;;;;;18.05;65.03;99355.12;1741793;81;21068;-66
2021/06/06 05:50:21;;;;;;;5.20;3.58;;;;;;;18.30;64.47;99345.94;1740574;82;21524;-67
2021/06/06 05:52:49;;;;;;;6.30;3.90;;;;;;;18.53;62.06;99350.64;1738954;81;21089;-67
2021/06/06 05:55:17;;;;;;;7.67;4.85;;;;;;;18.78;61.35;99341.36;1739263;82;21523;-66
2021/06/06 05:57:44;;;;;;;6.45;3.60;;;;;;;19.00;60.81;99345.75;1729544;82;21053;-66
2021/06/06 06:00:14;;;;;;;6.87;3.80;;;;;;;19.11;59.37;99346.39;1740178;82;21811;-66
2021/06/06 06:02:41;;;;;;;5.10;3.37;;;;;;;19.17;58.42;99342.27;1741464;82;21037;-67
2021/06/06 06:05:08;;;;;;;3.87;2.60;;;;;;;19.25;58.94;99345.54;1740355;82;20993;-66
2021/06/06 06:07:34;;;;;;;7.30;2.50;;;;;;;19.42;57.35;99341.83;1714984;82;21037;-66
2021/06/06 06:10:01;;;;;;;8.25;2.75;;;;;;;19.49;54.24;99341.28;1739773;82;20990;-66
2021/06/06 06:12:27;;;;;;;5.03;2.60;;;;;;;19.56;53.46;99346.48;1739302;81;21073;-66
2021/06/06 06:14:54;;;;;;;6.78;3.08;;;;;;;19.67;53.55;99339.95;1713162;82;21034;-67
2021/06/06 06:17:20;;;;;;;6.08;2.37;;;;;;;19.70;53.29;99342.03;1744997;82;21073;-68
2021/06/06 06:19:47;;;;;;;5.05;2.30;;;;;;;19.69;52.76;99338.48;1742241;82;20997;-66
2021/06/06 06:22:14;;;;;;;4.22;2.45;;;;;;;19.78;51.21;99342.52;1743015;81;21510;-66
2021/06/06 06:24:41;;;;;;;7.00;2.25;;;;;;;19.88;50.74;99344.27;1742403;82;21029;-67
2021/06/06 06:27:07;;;;;;;6.25;2.02;;;;;;;20.03;49.07;99346.13;1743221;81;21508;-65
2021/06/06 06:29:36;;;;;;;4.47;2.17;;;;;;;20.06;48.61;99342.11;1701876;84;21452;-65
2021/06/06 06:32:05;;;;;;;6.22;2.12;;;;;;;20.02;47.91;99346.70;1741448;82;20987;-65
2021/06/06 06:34:36;;;;;;;8.45;2.72;;;;;;;19.98;47.67;99344.39;1718258;82;21029;-65
2021/06/06 06:37:04;;;;;;;6.05;1.90;;;;;;;20.04;48.05;99342.23;1743892;81;20947;-67
2021/06/06 06:39:32;;;;;;;3.42;1.55;;;;;;;20.15;46.31;99345.58;1704426;84;20980;-65
2021/06/06 06:41:58;;;;;;;4.22;2.02;;;;;;;20.27;46.53;99346.98;1742494;82;21496;-65
2021/06/06 06:44:25;;;;;;;4.47;1.92;;;;;;;20.40;46.01;99342.28;1744186;82;20947;-65
2021/06/06 06:46:52;;;;;;;4.50;1.62;;;;;;;20.47;46.19;99338.93;1743591;82;21580;-65
2021/06/06 06:49:19;;;;;;;3.72;1.98;;;;;;;20.49;47.31;99334.66;1742060;82;21422;-66
2021/06/06 06:51:45;;;;;;;5.70;2.00;;;;;;;20.59;46.41;99331.42;1740894;82;21026;-66
2021/06/06 06:54:12;;;;;;;4.25;1.98;;;;;;;20.54;45.87;99335.82;1744433;81;21069;-65
2021/06/06 06:56:38;;;;;;;5.33;2.50;;;;;;;20.43;47.52;99326.95;1743677;82;21045;-67
2021/06/06 06:59:06;;;;;;;4.60;2.08;;;;;;;20.40;47.63;99326.27;1716919;82;20989;-67
2021/06/06 07:01:33;;;;;;;7.40;2.25;;;;;;;20.44;48.74;99331.34;1742533;82;20997;-66
2021/06/06 07:03:59;;;;;;;5.12;2.10;;;;;;;20.47;48.83;99324.54;1743837;81;21120;-68
2021/06/06 07:06:25;;;;;;;6.62;2.00;;;;;;;20.51;50.04;99324.65;1742922;82;21539;-67
2021/06/06 07:08:52;;;;;;;5.67;1.70;;;;;;;20.56;47.81;99327.97;1743404;82;21434;-66
2021/06/06 07:11:19;;;;;;;3.80;1.80;;;;;;;20.62;47.67;99323.00;1745114;82;21433;-66
2021/06/06 07:13:48;;;;;;;3.12;2.00;;;;;;;20.69;48.64;99326.79;1742563;82;21533;-66
2021/06/06 07:16:17;;;;;;;4.47;2.30;;;;;;;20.76;50.38;99326.23;1737783;82;20993;-67
2021/06/06 07:18:43;;;;;;;6.08;2.22;;;;;;;20.76;50.57;99323.46;1734048;82;20996;-66
2021/06/06 07:21:15;;;;;;;5.05;2.35;;;;;;;20.69;49.22;99325.41;1734746;82;20989;-66
2021/06/06 07:23:42;;;;;;;7.78;3.60;;;;;;;20.64;48.99;99323.47;1737361;82;21505;-67
2021/06/06 07:26:14;;;;;;;6.92;3.95;;;;;;;20.59;50.17;99316.78;1735868;82;21572;-67
2021/06/06 07:28:41;;;;;;;6.03;3.05;;;;;;;20.52;50.56;99324.28;1736646;81;21046;-66
2021/06/06 07:31:07;;;;;;;10.93;6.35;;;;;;;20.48;50.96;99329.47;1736128;82;20979;-67
2021/06/06 07:33:37;;;;;;;4.28;2.37;;;;;;;20.49;51.59;99322.79;1733654;82;21025;-67
2021/06/06 07:36:06;;;;;;;7.30;1.80;;;;;;;20.56;49.17;99321.63;1731563;82;21610;-67
2021/06/06 07:38:33;;;;;;;4.15;1.90;;;;;;;20.61;47.29;99324.98;1733705;82;21003;-67
2021/06/06 07:40:59;;;;;;;5.47;1.60;;;;;;;20.70;45.53;99320.11;1733961;82;21415;-67
2021/06/06 07:43:26;;;;;;;4.72;1.80;;;;;;;20.76;46.66;99327.01;1733485;81;21029;-67
2021/06/06 07:45:53;;;;;;;4.33;1.30;;;;;;;20.87;46.08;99323.18;1713891;82;21002;-66
2021/06/06 07:48:20;;;;;;;5.65;1.80;;;;;;;20.96;45.45;99323.05;1731006;81;21115;-67
2021/06/06 07:50:47;;;;;;;4.75;1.35;;;;;;;21.02;43.96;99325.22;1734252;82;21065;-66
2021/06/06 07:53:14;;;;;;;4.10;1.60;;;;;;;21.09;45.06;99325.43;1735311;81;21057;-67
2021/06/06 07:55:41;;;;;;;5.33;2.02;;;;;;;21.24;45.05;99326.10;1733391;82;20986;-66
2021/06/06 07:58:08;;;;;;;5.33;2.10;;;;;;;21.25;45.11;99331.88;1733339;82;21014;-67
2021/06/06 08:00:40;;;;;;;6.42;2.12;;;;;;;21.08;45.73;99325.80;1716039;82;21014;-67
2021/06/06 08:03:07;;;;;;;6.50;1.80;;;;;;;21.03;46.22;99327.41;1731411;82;20993;-67
2021/06/06 08:05:34;;;;;;;6.22;2.12;;;;;;;21.00;46.17;99320.63;1734147;82;21030;-66
2021/06/06 08:08:01;;;;;;;4.42;1.60;;;;;;;21.13;46.01;99324.98;1734271;82;21017;-67
2021/06/06 08:10:29;;;;;;;5.45;1.60;;;;;;;21.29;44.85;99325.05;1734653;82;20970;-66
2021/06/06 08:12:55;;;;;;;4.60;2.00;;;;;;;21.33;45.80;99325.94;1730781;81;21104;-67
2021/06/06 08:15:24;;;;;;;6.17;1.70;;;;;;;21.40;46.77;99334.44;1733666;82;20978;-67
2021/06/06 08:17:51;;;;;;;4.65;1.52;;;;;;;21.55;46.18;99333.69;1715240;82;21075;-67
2021/06/06 08:20:22;;;;;;;5.28;1.20;;;;;;;21.64;44.75;99331.58;1742305;82;20989;-67
2021/06/06 08:22:51;;;;;;;6.03;1.37;;;;;;;21.70;45.06;99333.49;1718890;82;21032;-67
2021/06/06 08:25:18;;;;;;;3.20;1.67;;;;;;;21.75;45.48;99337.41;1742626;82;21037;-67
2021/06/06 08:27:45;;;;;;;3.55;1.50;;;;;;;21.75;44.52;99333.25;1744288;81;21530;-67
2021/06/06 08:30:22;;;;;;;4.65;1.40;;;;;;;21.56;44.00;99340.84;1743060;82;20935;-67
2021/06/06 08:32:49;;;;;;;5.85;1.55;;;;;;;21.24;43.30;99345.48;1742678;81;21049;-67
2021/06/06 08:35:15;;;;;;;5.30;1.72;;;;;;;21.04;45.02;99346.45;1742813;82;20954;-67
2021/06/06 08:37:44;;;;;;;4.30;1.30;;;;;;;21.03;46.25;99347.59;1743933;82;20997;-67
2021/06/06 08:40:12;;;;;;;5.62;1.55;;;;;;;21.08;45.73;99340.41;1741435;82;20977;-67
2021/06/06 08:42:42;;;;;;;4.33;1.40;;;;;;;21.06;45.77;99348.27;1719839;82;21039;-67
2021/06/06 08:45:29;;;;;;;3.20;1.42;;;;;;;21.11;44.98;99346.69;1744355;82;20935;-68
2021/06/06 08:47:58;;;;;;;4.37;1.30;;;;;;;21.15;44.41;99342.64;1742104;82;21529;-67
2021/06/06 08:50:29;;;;;;;5.47;1.80;;;;;;;21.20;43.62;99343.19;1740725;82;21996;-67
2021/06/06 08:53:33;;;;;;;5.17;1.82;;;;;;;21.23;44.83;99348.02;1743081;81;20978;-67
2021/06/06 08:56:19;;;;;;;4.58;1.40;;;;;;;21.23;44.42;99348.59;1740355;82;21029;-67
2021/06/06 08:58:55;;;;;;;3.08;1.50;;;;;;;21.22;44.51;99345.62;1744390;81;20978;-67
2021/06/06 09:01:38;;;;;;;2.50;1.10;;;;;;;21.30;45.29;99339.91;1743055;82;21024;-68
2021/06/06 09:04:10;;;;;;;4.90;1.52;;;;;;;21.43;45.05;99339.88;1743478;82;21049;-67
2021/06/06 09:06:57;;;;;;;3.62;1.40;;;;;;;21.51;44.71;99344.43;1744489;82;21512;-67
2021/06/06 09:09:31;;;;;;;4.20;1.55;;;;;;;21.64;44.56;99337.69;1743877;82;21628;-67
2021/06/06 09:12:05;;;;;;;3.67;1.50;;;;;;;21.81;44.83;99337.36;1743953;81;21426;-68
2021/06/06 09:14:31;;;;;;;6.55;1.32;;;;;;;21.94;43.22;99328.41;1743886;82;21431;-68
2021/06/06 09:17:08;;;;;;;3.95;1.10;;;;;;;21.93;44.72;99326.20;1735689;81;21080;-68
2021/06/06 09:19:55;;;;;;;3.72;1.40;;;;;;;22.04;43.07;99323.13;1734337;82;21554;-68
2021/06/06 09:22:38;;;;;;;4.05;1.20;;;;;;;22.03;43.99;99320.16;1735808;81;21072;-68
2021/06/06 09:25:26;;;;;;;6.12;1.25;;;;;;;22.07;43.80;99314.09;1735517;82;20971;-68
2021/06/06 09:28:06;;;;;;;4.22;1.92;;;;;;;22.15;43.08;99302.03;1732771;81;21030;-68
2021/06/06 09:30:35;;;;;;;5.78;1.75;;;;;;;22.30;44.78;99315.66;1733533;82;20955;-68
2021/06/06 09:33:13;;;;;;;4.10;1.70;;;;;;;22.39;45.69;99317.65;1732394;81;21037;-67
2021/06/06 09:35:51;;;;;;;7.95;1.85;;;;;;;22.58;44.85;99314.95;1737236;82;21001;-67
2021/06/06 09:38:34;;;;;;;7.67;1.95;;;;;;;22.82;42.90;99308.36;1658790;85;21081;-67
2021/06/06 09:41:32;;;;;;;2.52;1.57;;;;;;;22.99;41.32;99312.10;1719085;82;20991;-67
2021/06/06 09:44:10;;;;;;;6.03;1.67;;;;;;;23.17;41.51;99309.70;1733820;82;21029;-67
2021/06/06 09:46:49;;;;;;;7.55;2.00;;;;;;;23.24;41.27;99313.42;1732134;82;21026;-68
2021/06/06 09:49:38;;;;;;;7.40;1.60;;;;;;;23.36;42.28;99305.53;1713666;82;21083;-67
2021/06/06 09:52:40;;;;;;;4.22;1.40;;;;;;;23.40;41.32;99306.99;1733276;81;21093;-67
2021/06/06 09:55:06;;;;;;;4.28;1.22;;;;;;;23.39;40.67;99308.16;1718549;82;21486;-68
2021/06/06 09:57:38;;;;;;;4.85;1.20;;;;;;;23.19;39.10;99310.96;1733591;81;21081;-67
2021/06/06 10:00:28;;;;;;;5.08;2.17;;;;;;;23.00;41.30;99312.33;1733776;82;21569;-68
2021/06/06 10:03:04;;;;;;;8.18;1.50;;;;;;;22.94;42.11;99314.37;1732697;81;21734;-68
2021/06/06 10:05:35;;;;;;;5.70;1.90;;;;;;;22.92;40.47;99307.01;1734552;82;21039;-68
2021/06/06 10:08:25;;;;;;;3.60;1.52;;;;;;;22.90;40.56;99312.91;1733569;82;21088;-68
2021/06/06 10:11:14;;;;;;;3.95;1.47;;;;;;;22.88;39.31;99308.32;1732137;82;21011;-67
2021/06/06 10:13:49;;;;;;;3.90;1.40;;;;;;;23.03;39.88;99309.40;1734060;81;21094;-68
2021/06/06 10:16:27;;;;;;;4.17;1.50;;;;;;;23.30;40.85;99305.05;1730815;82;21076;-67
2021/06/06 10:19:06;;;;;;;4.53;1.60;;;;;;;23.46;37.66;99299.41;1726269;82;21080;-67
2021/06/06 10:21:35;;;;;;;3.47;1.57;;;;;;;23.68;39.90;99292.28;1724362;82;21013;-67
2021/06/06 10:24:17;;;;;;;2.77;1.32;;;;;;;23.75;39.22;99289.05;1723757;82;21114;-67
2021/06/06 10:26:52;;;;;;;5.58;1.45;;;;;;;23.79;40.25;99281.58;1723320;82;21009;-67
2021/06/06 10:29:35;;;;;;;;;;;;;;;23.84;40.32;99280.48;1717098;82;21060;-67
2021/06/06 10:32:14;;;;;;;5.45;1.60;;;;;;;23.62;40.46;99277.91;1710389;84;20132;-67
2021/06/06 10:34:57;;;;;;;4.05;1.55;;;;;;;23.53;40.42;99273.16;1719575;82;21576;-67
2021/06/06 10:37:25;;;;;;;3.08;1.32;;;;;;;23.65;40.58;99277.74;1723773;82;21100;-68
2021/06/06 10:39:56;;;;;;;5.55;1.60;;;;;;;23.39;39.58;99276.21;1723852;82;21000;-68
2021/06/06 10:42:31;;;;;;;4.45;1.50;;;;;;;23.19;41.26;99271.28;1725143;82;21072;-68
2021/06/06 10:45:27;;;;;;;5.33;1.55;;;;;;;23.09;40.17;99277.42;1722864;82;20990;-67
2021/06/06 10:48:02;;;;;;;4.95;1.55;;;;;;;23.18;42.27;99267.70;1724412;82;21181;-67
2021/06/06 10:50:42;;;;;;;5.72;1.57;;;;;;;23.37;41.72;99260.52;1725838;82;20946;-68
2021/06/06 10:53:19;;;;;;;6.58;1.52;;;;;;;23.52;39.72;99262.43;1721493;82;21663;-68
2021/06/06 10:56:10;;;;;;;2.85;1.15;;;;;;;23.52;39.94;99267.98;1724604;82;21017;-68
2021/06/06 10:58:51;;;;;;;5.40;1.30;;;;;;;23.34;41.04;99270.98;1724200;82;21032;-67
2021/06/06 11:01:23;;;;;;;7.28;1.70;;;;;;;23.28;40.11;99260.16;1723370;82;21745;-68
2021/06/06 11:03:54;;;;;;;4.25;1.37;;;;;;;23.22;40.77;99259.44;1724045;82;21616;-67
2021/06/06 11:06:26;;;;;;;3.35;1.20;;;;;;;23.22;40.50;99256.08;1720835;82;21048;-68
2021/06/06 11:08:53;;;;;;;5.12;1.57;;;;;;;23.23;39.24;99252.14;1724131;82;21072;-68
2021/06/06 11:11:37;;;;;;;4.35;1.50;;;;;;;23.24;40.23;99245.39;1724608;82;21061;-68
2021/06/06 11:14:15;;;;;;;6.33;1.70;;;;;;;23.40;42.89;99241.14;1722420;82;21065;-67
2021/06/06 11:16:47;;;;;;;4.03;1.22;;;;;;;23.77;42.45;99242.22;1721329;82;21104;-68
2021/06/06 11:19:21;;;;;;;4.33;1.65;;;;;;;24.17;41.22;99231.98;1715249;83;21070;-67
2021/06/06 11:21:53;;;;;;;3.52;1.50;;;;;;;24.39;39.00;99222.56;1714673;83;21555;-67
2021/06/06 11:24:43;;;;;;;4.28;1.32;;;;;;;24.38;38.14;99221.76;1715237;83;21065;-67
2021/06/06 11:27:18;;;;;;;5.65;1.60;;;;;;;24.23;37.80;99225.53;1715760;83;21027;-68
2021/06/06 11:30:24;;;;;;;5.95;1.50;;;;;;;23.96;38.03;99220.50;1714655;83;21085;-68
2021/06/06 11:33:03;;;;;;;4.60;1.80;;;;;;;23.77;39.95;99225.55;1714553;83;21638;-67
2021/06/06 11:35:38;;;;;;;3.20;1.42;;;;;;;23.83;39.58;99220.50;1715732;83;21488;-68
2021/06/06 11:38:41;;;;;;;4.55;1.57;;;;;;;23.86;39.40;99222.53;1715334;83;21498;-68
2021/06/06 11:41:27;;;;;;;5.10;1.70;;;;;;;23.61;40.09;99215.16;1714553;83;21006;-66
2021/06/06 11:44:30;;;;;;;4.97;1.60;;;;;;;23.56;42.62;99214.07;1715241;83;21626;-68
2021/06/06 11:47:09;;;;;;;8.20;2.10;;;;;;;23.89;39.06;99199.54;1715570;83;21050;-67
2021/06/06 11:49:57;;;;;;;;;;;;;;;23.98;39.79;99212.61;1696801;83;21447;-68
2021/06/06 11:52:34;;;;;;;2.75;1.32;;;;;;;23.99;38.59;99203.07;1715618;83;20107;-68
2021/06/06 11:55:09;;;;;;;4.28;1.85;;;;;;;24.00;38.12;99201.91;1715550;83;21072;-68
2021/06/06 11:57:50;;;;;;;11.73;1.62;;;;;;;24.03;37.68;99203.94;1702652;83;21649;-68
2021/06/06 12:00:43;;;;;;;3.30;1.40;;;;;;;23.99;36.50;99207.83;1713474;83;20989;-67